IBE17Y OBBI-OMDB
Flight info
| Callsign | IBE17Y |
|---|---|
| Flight time | 0h 52m |
| Altitude | 25000 |
| Route | BHR N697 SODAK P559 VUTEB |
| Aircraft | A20N/M-SDE2E3FGHIRWXY/LB1 |
Departure
| Time | 2026-04-20 17:26 |
|---|---|
| Airport | Bahrain International Airport (OBBI) |
Arrival
| Time | 2026-04-20 18:18 |
|---|---|
| Airport | Dubai International Airport (OMDB) |
| Time | Latitude | Longitude | Altitude | Speed | Heading |
|---|---|---|---|---|---|
| 2026-04-20 16:32 | 26.26957 | 50.62779 | 48 ft | 0 kts | 214° |
| 2026-04-20 17:10 | 26.26972 | 50.62791 | -7 ft | 3 kts | 214° |
| 2026-04-20 17:11 | 26.26988 | 50.62802 | 22 ft | 3 kts | 214° |
| 2026-04-20 17:11 | 26.27003 | 50.62814 | 23 ft | 3 kts | 214° |
| 2026-04-20 17:11 | 26.27019 | 50.62825 | 20 ft | 3 kts | 214° |
| 2026-04-20 17:11 | 26.27035 | 50.62836 | 22 ft | 3 kts | 190° |
| 2026-04-20 17:12 | 26.27053 | 50.62834 | 22 ft | 3 kts | 149° |
| 2026-04-20 17:12 | 26.27059 | 50.62830 | 23 ft | 0 kts | 133° |
| 2026-04-20 17:15 | 26.27058 | 50.62831 | 23 ft | 0 kts | 133° |
| 2026-04-20 17:15 | 26.27056 | 50.62835 | 22 ft | 1 kts | 130° |
| 2026-04-20 17:15 | 26.27054 | 50.62839 | 22 ft | 1 kts | 119° |
| 2026-04-20 17:16 | 26.27064 | 50.62884 | 21 ft | 11 kts | 50° |
| 2026-04-20 17:16 | 26.27112 | 50.62944 | 21 ft | 10 kts | 83° |
| 2026-04-20 17:16 | 26.27081 | 50.63013 | 21 ft | 10 kts | 123° |
| 2026-04-20 17:16 | 26.27040 | 50.63081 | 22 ft | 11 kts | 123° |
| 2026-04-20 17:17 | 26.26995 | 50.63158 | 20 ft | 13 kts | 123° |
| 2026-04-20 17:17 | 26.26945 | 50.63242 | 19 ft | 13 kts | 122° |
| 2026-04-20 17:17 | 26.26896 | 50.63328 | 19 ft | 13 kts | 122° |
| 2026-04-20 17:17 | 26.26846 | 50.63415 | 19 ft | 14 kts | 123° |
| 2026-04-20 17:18 | 26.26793 | 50.63506 | 19 ft | 14 kts | 123° |
| 2026-04-20 17:18 | 26.26741 | 50.63596 | 19 ft | 13 kts | 123° |
| 2026-04-20 17:18 | 26.26692 | 50.63682 | 21 ft | 13 kts | 121° |
| 2026-04-20 17:18 | 26.26627 | 50.63797 | 19 ft | 20 kts | 123° |
| 2026-04-20 17:19 | 26.26550 | 50.63927 | 20 ft | 20 kts | 123° |
| 2026-04-20 17:19 | 26.26474 | 50.64060 | 20 ft | 21 kts | 122° |
| 2026-04-20 17:19 | 26.26394 | 50.64200 | 18 ft | 22 kts | 123° |
| 2026-04-20 17:19 | 26.26310 | 50.64343 | 17 ft | 23 kts | 123° |
| 2026-04-20 17:20 | 26.26222 | 50.64489 | 17 ft | 23 kts | 124° |
| 2026-04-20 17:20 | 26.26133 | 50.64635 | 18 ft | 23 kts | 122° |
| 2026-04-20 17:20 | 26.26049 | 50.64784 | 19 ft | 21 kts | 121° |
| 2026-04-20 17:20 | 26.26030 | 50.64819 | 21 ft | 0 kts | 121° |
| 2026-04-20 17:21 | 26.26012 | 50.64850 | 19 ft | 21 kts | 122° |
| 2026-04-20 17:21 | 26.26015 | 50.64932 | 19 ft | 8 kts | 49° |
| 2026-04-20 17:21 | 26.26019 | 50.64938 | 19 ft | 0 kts | 49° |
| 2026-04-20 17:21 | 26.26040 | 50.64962 | 20 ft | 15 kts | 43° |
| 2026-04-20 17:22 | 26.26127 | 50.64996 | 22 ft | 12 kts | 340° |
| 2026-04-20 17:22 | 26.26174 | 50.64932 | 20 ft | 0 kts | 304° |
| 2026-04-20 17:23 | 26.26175 | 50.64931 | 20 ft | 1 kts | 304° |
| 2026-04-20 17:23 | 26.26176 | 50.64930 | 20 ft | 0 kts | 304° |
| 2026-04-20 17:25 | 26.26179 | 50.64925 | 20 ft | 6 kts | 304° |
| 2026-04-20 17:25 | 26.26358 | 50.64660 | 18 ft | 84 kts | 303° |
| 2026-04-20 17:25 | 26.26827 | 50.63812 | 52 ft | 167 kts | 303° |
| 2026-04-20 17:26 | 26.27480 | 50.62692 | 937 ft | 172 kts | 306° |
| 2026-04-20 17:26 | 26.28366 | 50.61847 | 1958 ft | 170 kts | 348° |
| 2026-04-20 17:26 | 26.29663 | 50.61600 | 2314 ft | 211 kts | 0° |
| 2026-04-20 17:26 | 26.31210 | 50.61582 | 2733 ft | 234 kts | 0° |
| 2026-04-20 17:27 | 26.32930 | 50.61359 | 3094 ft | 261 kts | 352° |
| 2026-04-20 17:27 | 26.34762 | 50.60983 | 3664 ft | 272 kts | 350° |
| 2026-04-20 17:27 | 26.36629 | 50.60564 | 4042 ft | 275 kts | 348° |
| 2026-04-20 17:27 | 26.38514 | 50.60129 | 4455 ft | 278 kts | 348° |
| 2026-04-20 17:28 | 26.40427 | 50.59799 | 4855 ft | 280 kts | 357° |
| 2026-04-20 17:28 | 26.42366 | 50.60073 | 5255 ft | 287 kts | 18° |
| 2026-04-20 17:28 | 26.44090 | 50.61246 | 5871 ft | 298 kts | 46° |
| 2026-04-20 17:28 | 26.45144 | 50.63248 | 6514 ft | 306 kts | 74° |
| 2026-04-20 17:29 | 26.45624 | 50.65576 | 7221 ft | 309 kts | 84° |
| 2026-04-20 17:29 | 26.45980 | 50.67922 | 7988 ft | 315 kts | 72° |
| 2026-04-20 17:29 | 26.46962 | 50.70111 | 8778 ft | 318 kts | 57° |
| 2026-04-20 17:29 | 26.48245 | 50.72135 | 9610 ft | 321 kts | 50° |
| 2026-04-20 17:30 | 26.49676 | 50.74063 | 10337 ft | 327 kts | 46° |
| 2026-04-20 17:30 | 26.51235 | 50.76013 | 10704 ft | 347 kts | 45° |
| 2026-04-20 17:30 | 26.52912 | 50.78054 | 11006 ft | 366 kts | 45° |
| 2026-04-20 17:30 | 26.54678 | 50.80201 | 11339 ft | 383 kts | 45° |
| 2026-04-20 17:31 | 26.56486 | 50.82423 | 11881 ft | 390 kts | 45° |
| 2026-04-20 17:31 | 26.58310 | 50.84692 | 12537 ft | 394 kts | 46° |
| 2026-04-20 17:31 | 26.60138 | 50.86989 | 13239 ft | 397 kts | 46° |
| 2026-04-20 17:31 | 26.61975 | 50.89314 | 13939 ft | 401 kts | 46° |
| 2026-04-20 17:32 | 26.63798 | 50.91631 | 14593 ft | 405 kts | 46° |
| 2026-04-20 17:32 | 26.65666 | 50.94009 | 15235 ft | 409 kts | 46° |
| 2026-04-20 17:32 | 26.67553 | 50.96414 | 15876 ft | 414 kts | 46° |
| 2026-04-20 17:32 | 26.69462 | 50.98848 | 16510 ft | 419 kts | 46° |
| 2026-04-20 17:33 | 26.71396 | 51.01314 | 17142 ft | 423 kts | 46° |
| 2026-04-20 17:33 | 26.73312 | 51.03826 | 17743 ft | 428 kts | 50° |
| 2026-04-20 17:33 | 26.75012 | 51.06586 | 18311 ft | 434 kts | 57° |
| 2026-04-20 17:33 | 26.76283 | 51.09675 | 18811 ft | 441 kts | 73° |
| 2026-04-20 17:34 | 26.76712 | 51.13070 | 19298 ft | 444 kts | 92° |
| 2026-04-20 17:34 | 26.76273 | 51.16431 | 19804 ft | 444 kts | 106° |
| 2026-04-20 17:34 | 26.75364 | 51.19740 | 20324 ft | 445 kts | 112° |
| 2026-04-20 17:34 | 26.74224 | 51.22964 | 20857 ft | 448 kts | 116° |
| 2026-04-20 17:35 | 26.72979 | 51.26173 | 21391 ft | 451 kts | 117° |
| 2026-04-20 17:35 | 26.71705 | 51.29388 | 21921 ft | 454 kts | 117° |
| 2026-04-20 17:35 | 26.70435 | 51.32639 | 22445 ft | 458 kts | 116° |
| 2026-04-20 17:35 | 26.69183 | 51.35926 | 22961 ft | 462 kts | 116° |
| 2026-04-20 17:36 | 26.67948 | 51.39252 | 23457 ft | 466 kts | 115° |
| 2026-04-20 17:36 | 26.66720 | 51.42627 | 23866 ft | 469 kts | 115° |
| 2026-04-20 17:36 | 26.65537 | 51.45982 | 24267 ft | 473 kts | 114° |
| 2026-04-20 17:36 | 26.64377 | 51.49432 | 24651 ft | 476 kts | 113° |
| 2026-04-20 17:37 | 26.63239 | 51.52918 | 24824 ft | 481 kts | 112° |
| 2026-04-20 17:37 | 26.62092 | 51.56476 | 24846 ft | 493 kts | 112° |
| 2026-04-20 17:37 | 26.60927 | 51.60105 | 24838 ft | 498 kts | 112° |
| 2026-04-20 17:37 | 26.59758 | 51.63747 | 24844 ft | 499 kts | 112° |
| 2026-04-20 17:38 | 26.58585 | 51.67399 | 24843 ft | 499 kts | 112° |
| 2026-04-20 17:38 | 26.57411 | 51.71043 | 24840 ft | 499 kts | 112° |
| 2026-04-20 17:38 | 26.56234 | 51.74693 | 24838 ft | 499 kts | 112° |
| 2026-04-20 17:38 | 26.55071 | 51.78292 | 24845 ft | 499 kts | 112° |
| 2026-04-20 17:39 | 26.53890 | 51.81939 | 24843 ft | 499 kts | 112° |
| 2026-04-20 17:39 | 26.52710 | 51.85582 | 24844 ft | 499 kts | 112° |
| 2026-04-20 17:39 | 26.51523 | 51.89224 | 24837 ft | 499 kts | 112° |
| 2026-04-20 17:39 | 26.50324 | 51.92866 | 24845 ft | 499 kts | 112° |
| 2026-04-20 17:40 | 26.49123 | 51.96492 | 24838 ft | 499 kts | 112° |
| 2026-04-20 17:40 | 26.47915 | 52.00127 | 24840 ft | 499 kts | 112° |
| 2026-04-20 17:40 | 26.46706 | 52.03753 | 24833 ft | 498 kts | 112° |
| 2026-04-20 17:40 | 26.45514 | 52.07326 | 24838 ft | 498 kts | 112° |
| 2026-04-20 17:41 | 26.44305 | 52.10948 | 24834 ft | 498 kts | 112° |
| 2026-04-20 17:41 | 26.43095 | 52.14569 | 24835 ft | 498 kts | 112° |
| 2026-04-20 17:41 | 26.41887 | 52.18182 | 24839 ft | 498 kts | 112° |
| 2026-04-20 17:41 | 26.40676 | 52.21801 | 24841 ft | 497 kts | 112° |
| 2026-04-20 17:42 | 26.39466 | 52.25414 | 24842 ft | 497 kts | 112° |
| 2026-04-20 17:42 | 26.38256 | 52.29025 | 24829 ft | 497 kts | 113° |
| 2026-04-20 17:42 | 26.37043 | 52.32640 | 24826 ft | 497 kts | 113° |
| 2026-04-20 17:42 | 26.35848 | 52.36200 | 24831 ft | 497 kts | 113° |
| 2026-04-20 17:43 | 26.34614 | 52.39794 | 24834 ft | 497 kts | 114° |
| 2026-04-20 17:43 | 26.33321 | 52.43363 | 24824 ft | 496 kts | 115° |
| 2026-04-20 17:43 | 26.31992 | 52.46912 | 24832 ft | 496 kts | 115° |
| 2026-04-20 17:43 | 26.30642 | 52.50445 | 24829 ft | 496 kts | 116° |
| 2026-04-20 17:44 | 26.29281 | 52.53974 | 24833 ft | 496 kts | 116° |
| 2026-04-20 17:44 | 26.27915 | 52.57503 | 24830 ft | 496 kts | 116° |
| 2026-04-20 17:44 | 26.26552 | 52.61024 | 24830 ft | 495 kts | 116° |
| 2026-04-20 17:44 | 26.25186 | 52.64554 | 24836 ft | 495 kts | 116° |
| 2026-04-20 17:45 | 26.23844 | 52.68027 | 24833 ft | 495 kts | 116° |
| 2026-04-20 17:45 | 26.22488 | 52.71551 | 24833 ft | 495 kts | 116° |
| 2026-04-20 17:45 | 26.21132 | 52.75081 | 24827 ft | 495 kts | 115° |
| 2026-04-20 17:45 | 26.19780 | 52.78608 | 24830 ft | 495 kts | 115° |
| 2026-04-20 17:46 | 26.18427 | 52.82139 | 24833 ft | 495 kts | 115° |
| 2026-04-20 17:46 | 26.17078 | 52.85657 | 24833 ft | 493 kts | 115° |
| 2026-04-20 17:46 | 26.15732 | 52.89167 | 24834 ft | 492 kts | 115° |
| 2026-04-20 17:46 | 26.14390 | 52.92664 | 24831 ft | 491 kts | 115° |
| 2026-04-20 17:47 | 26.14245 | 52.93043 | 24834 ft | 491 kts | 115° |
| 2026-04-20 17:48 | 26.12915 | 52.96504 | 24834 ft | 491 kts | 115° |
| 2026-04-20 17:48 | 26.11588 | 52.99955 | 24832 ft | 491 kts | 115° |
| 2026-04-20 17:48 | 26.10245 | 53.03444 | 24830 ft | 491 kts | 115° |
| 2026-04-20 17:48 | 26.08919 | 53.06947 | 24834 ft | 491 kts | 115° |
| 2026-04-20 17:49 | 26.07609 | 53.10461 | 24832 ft | 492 kts | 115° |
| 2026-04-20 17:49 | 26.06312 | 53.13974 | 24833 ft | 492 kts | 114° |
| 2026-04-20 17:49 | 26.05018 | 53.17493 | 24833 ft | 492 kts | 114° |
| 2026-04-20 17:49 | 26.03725 | 53.21015 | 24834 ft | 492 kts | 114° |
| 2026-04-20 17:50 | 26.02431 | 53.24541 | 24834 ft | 492 kts | 114° |
| 2026-04-20 17:50 | 26.01138 | 53.28055 | 24833 ft | 492 kts | 114° |
| 2026-04-20 17:50 | 25.99841 | 53.31577 | 24836 ft | 492 kts | 114° |
| 2026-04-20 17:50 | 25.98543 | 53.35094 | 24832 ft | 492 kts | 114° |
| 2026-04-20 17:51 | 25.97240 | 53.38621 | 24837 ft | 492 kts | 114° |
| 2026-04-20 17:51 | 25.95940 | 53.42137 | 24837 ft | 493 kts | 114° |
| 2026-04-20 17:51 | 25.94654 | 53.45609 | 24835 ft | 493 kts | 115° |
| 2026-04-20 17:51 | 25.93352 | 53.49127 | 24838 ft | 493 kts | 114° |
| 2026-04-20 17:52 | 25.92075 | 53.52663 | 24836 ft | 493 kts | 114° |
| 2026-04-20 17:52 | 25.90826 | 53.56207 | 24836 ft | 493 kts | 113° |
| 2026-04-20 17:52 | 25.89592 | 53.59764 | 24837 ft | 493 kts | 113° |
| 2026-04-20 17:52 | 25.88370 | 53.63315 | 24837 ft | 493 kts | 113° |
| 2026-04-20 17:53 | 25.87147 | 53.66876 | 24837 ft | 493 kts | 113° |
| 2026-04-20 17:53 | 25.85926 | 53.70430 | 24836 ft | 493 kts | 113° |
| 2026-04-20 17:53 | 25.84704 | 53.73979 | 24835 ft | 493 kts | 113° |
| 2026-04-20 17:53 | 25.83480 | 53.77526 | 24839 ft | 492 kts | 113° |
| 2026-04-20 17:54 | 25.82267 | 53.81031 | 24838 ft | 492 kts | 113° |
| 2026-04-20 17:54 | 25.81038 | 53.84575 | 24838 ft | 492 kts | 113° |
| 2026-04-20 17:54 | 25.79806 | 53.88120 | 24840 ft | 492 kts | 113° |
| 2026-04-20 17:54 | 25.78573 | 53.91664 | 24840 ft | 492 kts | 113° |
| 2026-04-20 17:55 | 25.77339 | 53.95205 | 24839 ft | 492 kts | 113° |
| 2026-04-20 17:55 | 25.76105 | 53.98743 | 24838 ft | 492 kts | 113° |
| 2026-04-20 17:55 | 25.74890 | 54.02292 | 24837 ft | 492 kts | 112° |
| 2026-04-20 17:55 | 25.73728 | 54.05866 | 24839 ft | 492 kts | 111° |
| 2026-04-20 17:56 | 25.72603 | 54.09449 | 24838 ft | 492 kts | 111° |
| 2026-04-20 17:56 | 25.71498 | 54.13037 | 24843 ft | 492 kts | 110° |
| 2026-04-20 17:56 | 25.70399 | 54.16633 | 24842 ft | 492 kts | 110° |
| 2026-04-20 17:56 | 25.69316 | 54.20185 | 24842 ft | 492 kts | 110° |
| 2026-04-20 17:57 | 25.68219 | 54.23773 | 24844 ft | 492 kts | 110° |
| 2026-04-20 17:57 | 25.67117 | 54.27366 | 24842 ft | 492 kts | 110° |
| 2026-04-20 17:57 | 25.66012 | 54.30959 | 24842 ft | 492 kts | 110° |
| 2026-04-20 17:57 | 25.64904 | 54.34548 | 24836 ft | 492 kts | 110° |
| 2026-04-20 17:58 | 25.63804 | 54.38105 | 24375 ft | 485 kts | 110° |
| 2026-04-20 17:58 | 25.62706 | 54.41649 | 23469 ft | 487 kts | 111° |
| 2026-04-20 17:58 | 25.61602 | 54.45196 | 22514 ft | 486 kts | 111° |
| 2026-04-20 17:58 | 25.60505 | 54.48709 | 21706 ft | 480 kts | 110° |
| 2026-04-20 17:59 | 25.59418 | 54.52185 | 20929 ft | 474 kts | 110° |
| 2026-04-20 17:59 | 25.58383 | 54.55630 | 20193 ft | 469 kts | 105° |
| 2026-04-20 17:59 | 25.57966 | 54.59141 | 19465 ft | 464 kts | 90° |
| 2026-04-20 17:59 | 25.58216 | 54.62677 | 18767 ft | 458 kts | 82° |
| 2026-04-20 18:00 | 25.58685 | 54.66144 | 18079 ft | 452 kts | 81° |
| 2026-04-20 18:00 | 25.59183 | 54.69550 | 17273 ft | 445 kts | 80° |
| 2026-04-20 18:00 | 25.59664 | 54.72918 | 16508 ft | 439 kts | 81° |
| 2026-04-20 18:00 | 25.60120 | 54.76239 | 15746 ft | 433 kts | 81° |
| 2026-04-20 18:01 | 25.60553 | 54.79516 | 15004 ft | 428 kts | 81° |
| 2026-04-20 18:01 | 25.60969 | 54.82761 | 14264 ft | 422 kts | 82° |
| 2026-04-20 18:01 | 25.61054 | 54.85985 | 13504 ft | 419 kts | 96° |
| 2026-04-20 18:01 | 25.60300 | 54.89078 | 12681 ft | 415 kts | 111° |
| 2026-04-20 18:02 | 25.59172 | 54.91959 | 11838 ft | 412 kts | 114° |
| 2026-04-20 18:02 | 25.57961 | 54.94819 | 11016 ft | 409 kts | 115° |
| 2026-04-20 18:02 | 25.56763 | 54.97666 | 10396 ft | 407 kts | 114° |
| 2026-04-20 18:02 | 25.55588 | 55.00519 | 10077 ft | 407 kts | 114° |
| 2026-04-20 18:03 | 25.54405 | 55.03313 | 9992 ft | 392 kts | 116° |
| 2026-04-20 18:03 | 25.53171 | 55.05888 | 9980 ft | 366 kts | 118° |
| 2026-04-20 18:03 | 25.51969 | 55.08273 | 9983 ft | 343 kts | 118° |
| 2026-04-20 18:03 | 25.50834 | 55.10493 | 9983 ft | 323 kts | 119° |
| 2026-04-20 18:04 | 25.49740 | 55.12623 | 9933 ft | 315 kts | 119° |
| 2026-04-20 18:04 | 25.48662 | 55.14717 | 9524 ft | 312 kts | 119° |
| 2026-04-20 18:04 | 25.47585 | 55.16801 | 9046 ft | 311 kts | 119° |
| 2026-04-20 18:04 | 25.46508 | 55.18870 | 8612 ft | 309 kts | 120° |
| 2026-04-20 18:05 | 25.43933 | 55.22582 | 8017 ft | 305 kts | 130° |
| 2026-04-20 18:05 | 25.42532 | 55.24345 | 7991 ft | 305 kts | 131° |
| 2026-04-20 18:05 | 25.41121 | 55.26093 | 7992 ft | 305 kts | 131° |
| 2026-04-20 18:06 | 25.39701 | 55.27844 | 7990 ft | 305 kts | 131° |
| 2026-04-20 18:06 | 25.38281 | 55.29590 | 7992 ft | 305 kts | 131° |
| 2026-04-20 18:06 | 25.36862 | 55.31333 | 7991 ft | 305 kts | 131° |
| 2026-04-20 18:06 | 25.35861 | 55.32426 | 7987 ft | 305 kts | 141° |
| 2026-04-20 18:07 | 25.34075 | 55.33683 | 7993 ft | 305 kts | 152° |
| 2026-04-20 18:07 | 25.31571 | 55.35089 | 7990 ft | 305 kts | 154° |
| 2026-04-20 18:07 | 25.29673 | 55.36134 | 7796 ft | 304 kts | 154° |
| 2026-04-20 18:07 | 25.27784 | 55.37191 | 7372 ft | 303 kts | 153° |
| 2026-04-20 18:08 | 25.26547 | 55.37894 | 7087 ft | 301 kts | 153° |
| 2026-04-20 18:08 | 25.24069 | 55.39316 | 6532 ft | 299 kts | 152° |
| 2026-04-20 18:08 | 25.22852 | 55.40020 | 6272 ft | 297 kts | 152° |
| 2026-04-20 18:08 | 25.21032 | 55.41076 | 6052 ft | 295 kts | 152° |
| 2026-04-20 18:09 | 25.19216 | 55.42135 | 6019 ft | 296 kts | 152° |
| 2026-04-20 18:09 | 25.16798 | 55.43545 | 6016 ft | 296 kts | 152° |
| 2026-04-20 18:09 | 25.14976 | 55.44609 | 6004 ft | 296 kts | 152° |
| 2026-04-20 18:09 | 25.13156 | 55.45672 | 5639 ft | 295 kts | 152° |
| 2026-04-20 18:10 | 25.11438 | 55.46875 | 5213 ft | 292 kts | 136° |
| 2026-04-20 18:10 | 25.10178 | 55.48601 | 4803 ft | 287 kts | 121° |
| 2026-04-20 18:10 | 25.09156 | 55.50473 | 4387 ft | 284 kts | 118° |
| 2026-04-20 18:10 | 25.08172 | 55.52356 | 3967 ft | 282 kts | 118° |
| 2026-04-20 18:11 | 25.07519 | 55.53594 | 3680 ft | 281 kts | 118° |
| 2026-04-20 18:11 | 25.06530 | 55.55439 | 3333 ft | 276 kts | 119° |
| 2026-04-20 18:11 | 25.05707 | 55.57959 | 3087 ft | 257 kts | 88° |
| 2026-04-20 18:11 | 25.06076 | 55.59788 | 3020 ft | 236 kts | 61° |
| 2026-04-20 18:12 | 25.06616 | 55.60817 | 3007 ft | 224 kts | 54° |
| 2026-04-20 18:12 | 25.07675 | 55.61938 | 3003 ft | 203 kts | 22° |
| 2026-04-20 18:12 | 25.08989 | 55.62128 | 3055 ft | 192 kts | 348° |
| 2026-04-20 18:12 | 25.10242 | 55.61614 | 3040 ft | 195 kts | 334° |
| 2026-04-20 18:13 | 25.11422 | 55.60836 | 3025 ft | 197 kts | 320° |
| 2026-04-20 18:13 | 25.12338 | 55.59743 | 3024 ft | 198 kts | 308° |
| 2026-04-20 18:13 | 25.13100 | 55.58477 | 3025 ft | 198 kts | 303° |
| 2026-04-20 18:13 | 25.13820 | 55.57181 | 3018 ft | 198 kts | 303° |
| 2026-04-20 18:14 | 25.14541 | 55.55885 | 3022 ft | 198 kts | 303° |
| 2026-04-20 18:14 | 25.15262 | 55.54586 | 3019 ft | 198 kts | 303° |
| 2026-04-20 18:14 | 25.15975 | 55.53282 | 2848 ft | 198 kts | 302° |
| 2026-04-20 18:14 | 25.16684 | 55.51985 | 2592 ft | 198 kts | 302° |
| 2026-04-20 18:15 | 25.17405 | 55.50688 | 2327 ft | 198 kts | 302° |
| 2026-04-20 18:15 | 25.18124 | 55.49396 | 2066 ft | 197 kts | 302° |
| 2026-04-20 18:15 | 25.18829 | 55.48123 | 1812 ft | 190 kts | 302° |
| 2026-04-20 18:15 | 25.19494 | 55.46921 | 1572 ft | 178 kts | 302° |
| 2026-04-20 18:16 | 25.20111 | 55.45804 | 1349 ft | 167 kts | 302° |
| 2026-04-20 18:16 | 25.20698 | 55.44741 | 1136 ft | 157 kts | 302° |
| 2026-04-20 18:16 | 25.21248 | 55.43745 | 939 ft | 147 kts | 301° |
| 2026-04-20 18:16 | 25.21777 | 55.42788 | 769 ft | 146 kts | 301° |
| 2026-04-20 18:17 | 25.22302 | 55.41837 | 589 ft | 146 kts | 301° |
| 2026-04-20 18:17 | 25.22838 | 55.40883 | 389 ft | 145 kts | 301° |
| 2026-04-20 18:17 | 25.23346 | 55.39920 | 196 ft | 145 kts | 301° |
| 2026-04-20 18:17 | 25.23868 | 55.38982 | 63 ft | 138 kts | 302° |
| 2026-04-20 18:18 | 25.24296 | 55.38222 | 56 ft | 91 kts | 301° |
| 2026-04-20 18:18 | 25.24515 | 55.37830 | 44 ft | 34 kts | 302° |
| 2026-04-20 18:18 | 25.24644 | 55.37601 | 39 ft | 35 kts | 302° |
| 2026-04-20 18:18 | 25.24757 | 55.37366 | 36 ft | 35 kts | 289° |
| 2026-04-20 18:19 | 25.24784 | 55.37174 | 37 ft | 15 kts | 272° |
| 2026-04-20 18:19 | 25.24786 | 55.37111 | 36 ft | 22 kts | 272° |
| 2026-04-20 18:19 | 25.24799 | 55.36964 | 33 ft | 16 kts | 284° |
| 2026-04-20 18:19 | 25.24844 | 55.36850 | 31 ft | 17 kts | 291° |
| 2026-04-20 18:20 | 25.24871 | 55.36724 | 30 ft | 17 kts | 279° |
| 2026-04-20 18:20 | 25.24920 | 55.36606 | 28 ft | 17 kts | 304° |
| 2026-04-20 18:20 | 25.24991 | 55.36491 | 26 ft | 19 kts | 302° |
| 2026-04-20 18:20 | 25.25056 | 55.36363 | 26 ft | 20 kts | 302° |
| 2026-04-20 18:21 | 25.25131 | 55.36230 | 25 ft | 21 kts | 302° |
| 2026-04-20 18:21 | 25.25211 | 55.36089 | 20 ft | 23 kts | 302° |
| 2026-04-20 18:21 | 25.25298 | 55.35934 | 18 ft | 25 kts | 301° |
| 2026-04-20 18:21 | 25.25388 | 55.35769 | 16 ft | 26 kts | 301° |
| 2026-04-20 18:22 | 25.25485 | 55.35591 | 15 ft | 28 kts | 301° |
| 2026-04-20 18:22 | 25.25584 | 55.35408 | 17 ft | 28 kts | 301° |
| 2026-04-20 18:22 | 25.25675 | 55.35243 | 20 ft | 19 kts | 301° |
| 2026-04-20 18:22 | 25.25688 | 55.35220 | 21 ft | 1 kts | 301° |
| 2026-04-20 18:23 | 25.25730 | 55.35146 | 22 ft | 16 kts | 302° |
| 2026-04-20 18:23 | 25.25788 | 55.35041 | 24 ft | 16 kts | 301° |
| 2026-04-20 18:23 | 25.25845 | 55.34937 | 25 ft | 16 kts | 300° |
| 2026-04-20 18:23 | 25.25901 | 55.34838 | 28 ft | 14 kts | 304° |
| 2026-04-20 18:24 | 25.25936 | 55.34775 | 29 ft | 9 kts | 301° |
| 2026-04-20 18:24 | 25.25970 | 55.34715 | 29 ft | 9 kts | 302° |
| 2026-04-20 18:24 | 25.25983 | 55.34648 | 28 ft | 11 kts | 252° |
| 2026-04-20 18:24 | 25.25930 | 55.34597 | 28 ft | 11 kts | 188° |
| 2026-04-20 18:25 | 25.25858 | 55.34582 | 28 ft | 11 kts | 209° |
| 2026-04-20 18:25 | 25.25834 | 55.34565 | 28 ft | 0 kts | 212° |
| 2026-04-20 18:25 | 25.25830 | 55.34563 | 28 ft | 1 kts | 212° |
| 2026-04-20 18:25 | 25.25828 | 55.34561 | 28 ft | 0 kts | 212° |